Time;durP1;ratioP1;P1;durP2;ratioP2;P2;SDS_P1;SDS_P2;PMS_P1;PMS_P2;Temp;Humidity;BMP_temperature;BMP_pressure;BME280_temperature;BME280_humidity;BME280_pressure;Samples;Min_cycle;Max_cycle;Signal;HPM_P1;HPM_P2
2022/01/17 00:02:59;;;;;;;16.37;10.70;;;3.80;99.90;;;;;;8476238;27;20206;-65
2022/01/17 00:07:00;;;;;;;14.20;10.53;;;3.80;99.90;;;;;;8484883;28;20206;-66
2022/01/17 00:11:01;;;;;;;16.77;11.33;;;3.90;99.90;;;;;;8475971;27;20175;-66
2022/01/17 00:15:15;;;;;;;19.63;11.13;;;3.90;99.90;;;;;;8468881;27;20176;-65
2022/01/17 00:23:25;;;;;;;14.43;10.30;;;3.90;99.90;;;;;;8480320;28;20203;-66
2022/01/17 00:27:26;;;;;;;14.23;10.43;;;3.90;99.90;;;;;;8462414;28;20182;-64
2022/01/17 00:31:27;;;;;;;17.57;10.43;;;3.90;99.90;;;;;;8471825;27;20182;-66
2022/01/17 00:35:28;;;;;;;18.17;10.80;;;3.90;99.90;;;;;;8459107;28;20230;-66
2022/01/17 00:39:29;;;;;;;17.40;11.07;;;3.90;99.90;;;;;;8459131;27;20184;-65
2022/01/17 00:43:30;;;;;;;17.27;10.50;;;3.80;99.90;;;;;;8477457;27;20211;-65
2022/01/17 00:47:30;;;;;;;14.57;9.93;;;3.80;99.90;;;;;;8468737;27;20242;-64
2022/01/17 00:51:31;;;;;;;15.07;9.70;;;3.80;99.90;;;;;;8485925;27;20259;-68
2022/01/17 00:55:34;;;;;;;15.87;9.93;;;3.70;99.90;;;;;;8492954;27;20537;-65
2022/01/17 00:59:35;;;;;;;15.53;10.17;;;3.70;99.90;;;;;;8489613;27;20183;-66
2022/01/17 01:03:36;;;;;;;18.53;10.93;;;3.80;99.90;;;;;;8481511;27;20207;-65
2022/01/17 01:07:37;;;;;;;13.43;10.13;;;3.70;99.90;;;;;;8489756;27;20467;-66
2022/01/17 01:11:38;;;;;;;16.27;10.13;;;3.80;99.90;;;;;;8475431;27;20176;-66
2022/01/17 01:19:41;;;;;;;17.40;11.33;;;3.80;99.90;;;;;;8478810;27;20187;-65
2022/01/17 01:28:04;;;;;;;19.13;12.00;;;3.80;99.90;;;;;;8464113;27;20252;-64
2022/01/17 01:32:08;;;;;;;19.33;12.07;;;3.70;99.90;;;;;;8482687;27;20321;-67
2022/01/17 01:36:16;;;;;;;18.60;12.40;;;3.80;99.90;;;;;;8474868;27;20180;-65
2022/01/17 01:40:18;;;;;;;18.60;11.83;;;3.80;99.90;;;;;;8478285;27;20206;-66
2022/01/17 01:44:22;;;;;;;20.33;12.60;;;3.70;99.90;;;;;;8490122;27;20248;-65
2022/01/17 01:48:23;;;;;;;17.73;12.37;;;3.70;99.90;;;;;;8469172;27;20250;-62
2022/01/17 01:52:24;;;;;;;19.67;12.63;;;3.80;99.90;;;;;;8483444;27;20175;-66
2022/01/17 01:56:24;;;;;;;18.07;12.57;;;3.70;99.90;;;;;;8488160;27;20197;-65
2022/01/17 02:00:25;;;;;;;21.17;13.20;;;3.80;99.90;;;;;;8481049;27;20214;-64
2022/01/17 02:04:26;;;;;;;18.93;12.00;;;3.80;99.90;;;;;;8485530;27;20207;-64
2022/01/17 02:08:28;;;;;;;20.83;13.10;;;3.80;99.90;;;;;;8486955;27;20223;-67
2022/01/17 02:12:29;;;;;;;19.13;13.20;;;3.80;99.90;;;;;;8485573;27;20199;-67
2022/01/17 02:16:33;;;;;;;21.87;12.63;;;3.90;99.90;;;;;;8482291;27;20207;-67
2022/01/17 02:24:41;;;;;;;17.37;11.77;;;3.90;99.90;;;;;;8474759;27;20518;-65
2022/01/17 02:28:47;;;;;;;20.73;11.83;;;3.90;99.90;;;;;;8467735;27;20193;-65
2022/01/17 02:32:48;;;;;;;18.67;11.63;;;3.90;99.90;;;;;;8466930;27;20254;-66
2022/01/17 02:36:49;;;;;;;17.87;11.97;;;3.90;99.90;;;;;;8471846;27;20179;-65
2022/01/17 02:40:50;;;;;;;19.47;11.90;;;3.90;99.90;;;;;;8466015;27;20195;-66
2022/01/17 02:44:55;;;;;;;18.23;12.50;;;3.80;99.90;;;;;;8466556;27;20195;-66
2022/01/17 02:48:58;;;;;;;18.13;11.63;;;3.90;99.90;;;;;;8470681;27;20176;-65
2022/01/17 02:53:02;;;;;;;19.80;12.13;;;3.90;99.90;;;;;;8475080;27;20181;-65
2022/01/17 02:57:03;;;;;;;18.37;12.20;;;3.90;99.90;;;;;;8475452;27;20202;-65
2022/01/17 03:01:13;;;;;;;15.57;11.30;;;3.90;99.90;;;;;;8466877;27;20184;-64
2022/01/17 03:05:18;;;;;;;16.43;10.53;;;4.00;99.90;;;;;;8472955;27;20243;-65
2022/01/17 03:09:20;;;;;;;15.83;9.93;;;4.10;99.90;;;;;;8476538;27;20222;-66
2022/01/17 03:13:28;;;;;;;15.70;10.17;;;4.20;99.90;;;;;;8480666;27;20175;-65
2022/01/17 03:17:29;;;;;;;16.07;9.27;;;4.20;99.90;;;;;;8478788;27;20199;-65
2022/01/17 03:21:32;;;;;;;13.63;8.80;;;4.20;99.90;;;;;;8475038;27;20210;-67
2022/01/17 03:25:33;;;;;;;12.07;8.07;;;4.30;99.90;;;;;;8464495;27;20211;-67
2022/01/17 03:29:34;;;;;;;17.13;8.10;;;4.30;99.90;;;;;;8489664;27;20171;-64
2022/01/17 03:33:36;;;;;;;12.20;7.93;;;4.30;99.90;;;;;;8474968;27;20268;-64
2022/01/17 03:37:37;;;;;;;10.17;6.90;;;4.30;99.90;;;;;;8473670;27;20186;-66
2022/01/17 03:41:38;;;;;;;12.00;7.60;;;4.40;99.90;;;;;;8482311;27;20207;-66
2022/01/17 03:45:40;;;;;;;11.63;7.67;;;4.40;99.90;;;;;;8472868;27;20195;-65
2022/01/17 03:49:40;;;;;;;10.53;7.07;;;4.40;99.90;;;;;;8472034;27;20202;-66
2022/01/17 03:53:41;;;;;;;12.10;7.27;;;4.40;99.90;;;;;;8474738;27;20175;-66
2022/01/17 03:57:43;;;;;;;12.20;7.83;;;4.40;99.90;;;;;;8485870;27;20195;-65
2022/01/17 04:01:44;;;;;;;13.00;7.63;;;4.40;99.90;;;;;;8466235;27;20188;-65
2022/01/17 04:05:45;;;;;;;11.33;7.13;;;4.40;99.90;;;;;;8473185;27;20196;-66
2022/01/17 04:09:46;;;;;;;10.47;6.87;;;4.40;99.90;;;;;;8489609;27;20592;-65
2022/01/17 04:13:47;;;;;;;11.57;7.43;;;4.40;99.90;;;;;;8481546;27;20183;-65
2022/01/17 04:17:47;;;;;;;9.93;7.30;;;4.40;99.90;;;;;;8473225;27;20214;-66
2022/01/17 04:21:48;;;;;;;11.33;6.60;;;4.50;99.90;;;;;;8469207;27;20206;-64
2022/01/17 04:25:49;;;;;;;10.00;6.57;;;4.50;99.90;;;;;;8478183;27;20175;-66
2022/01/17 04:29:50;;;;;;;11.53;6.70;;;4.50;99.90;;;;;;8484599;27;20302;-64
2022/01/17 04:33:51;;;;;;;11.33;6.97;;;4.50;99.90;;;;;;8473333;27;20266;-65
2022/01/17 04:38:01;;;;;;;7.87;6.07;;;4.60;99.90;;;;;;8462804;28;20183;-65
2022/01/17 04:42:10;;;;;;;10.23;6.10;;;4.60;99.90;;;;;;8485333;27;20207;-64
2022/01/17 04:46:12;;;;;;;10.57;6.07;;;4.60;99.90;;;;;;8464630;27;20175;-64
2022/01/17 04:50:20;;;;;;;9.50;6.83;;;4.60;99.90;;;;;;8477924;27;20230;-65
2022/01/17 04:54:40;;;;;;;9.93;5.77;;;4.60;99.90;;;;;;8480562;27;20588;-66
2022/01/17 04:58:41;;;;;;;9.03;5.40;;;4.70;99.90;;;;;;8475684;27;20192;-66
2022/01/17 05:02:42;;;;;;;8.57;5.23;;;4.80;99.90;;;;;;8476459;27;20323;-65
2022/01/17 05:06:43;;;;;;;8.70;5.30;;;4.80;99.90;;;;;;8492466;27;20182;-64
2022/01/17 05:10:52;;;;;;;8.67;5.60;;;4.80;99.90;;;;;;8494779;27;20179;-68
2022/01/17 05:14:53;;;;;;;10.17;6.03;;;4.90;99.90;;;;;;8473415;27;20177;-64
2022/01/17 05:23:13;;;;;;;5.93;4.23;;;5.00;99.90;;;;;;8482962;27;20215;-66
2022/01/17 05:27:14;;;;;;;7.73;5.33;;;5.10;99.90;;;;;;8481349;27;20180;-65
2022/01/17 05:31:16;;;;;;;9.63;6.37;;;5.20;99.90;;;;;;8473056;27;20316;-65
2022/01/17 05:35:17;;;;;;;10.90;5.77;;;5.20;99.90;;;;;;8491135;27;20262;-64
2022/01/17 05:39:18;;;;;;;11.03;6.30;;;5.10;99.90;;;;;;8486422;27;20242;-64
2022/01/17 05:43:19;;;;;;;10.83;6.23;;;5.10;99.90;;;;;;8455933;28;20215;-64
2022/01/17 05:47:20;;;;;;;7.93;5.17;;;5.10;99.90;;;;;;8464187;27;20183;-64
2022/01/17 05:51:21;;;;;;;10.10;4.57;;;5.00;99.90;;;;;;8472878;27;20211;-65
2022/01/17 05:55:22;;;;;;;9.80;4.10;;;5.10;99.90;;;;;;8471701;27;20218;-64
2022/01/17 05:59:22;;;;;;;5.30;3.47;;;5.10;99.90;;;;;;8477960;27;20189;-65
2022/01/17 06:03:25;;;;;;;4.87;3.73;;;5.10;99.90;;;;;;8480971;27;20241;-64
2022/01/17 06:07:26;;;;;;;5.13;3.80;;;5.10;99.90;;;;;;8484948;27;20187;-63
2022/01/17 06:11:27;;;;;;;7.30;3.20;;;5.10;99.90;;;;;;8491845;27;20182;-65
2022/01/17 06:15:28;;;;;;;4.13;3.30;;;5.10;99.90;;;;;;8490542;27;20226;-63
2022/01/17 06:19:29;;;;;;;7.83;4.00;;;5.00;99.90;;;;;;8459679;27;20188;-63
2022/01/17 06:23:29;;;;;;;6.93;3.77;;;5.00;99.90;;;;;;8467633;27;20209;-66
2022/01/17 06:27:30;;;;;;;8.17;3.93;;;4.90;99.90;;;;;;8479305;27;20180;-66
2022/01/17 06:31:31;;;;;;;8.77;4.27;;;4.90;99.90;;;;;;8482652;27;20179;-65
2022/01/17 06:35:32;;;;;;;4.77;3.60;;;4.90;99.90;;;;;;8455523;28;20240;-64
2022/01/17 06:39:34;;;;;;;5.60;3.57;;;4.90;99.90;;;;;;8471570;27;20212;-65
2022/01/17 06:43:35;;;;;;;4.97;3.50;;;4.80;99.90;;;;;;8455451;28;20204;-69
2022/01/17 06:47:36;;;;;;;4.63;2.97;;;4.70;99.90;;;;;;8455364;27;20274;-64
2022/01/17 06:51:37;;;;;;;3.97;2.70;;;4.70;99.90;;;;;;8471876;27;20187;-64
2022/01/17 06:55:38;;;;;;;3.47;2.20;;;4.50;99.90;;;;;;8487402;27;20197;-65
2022/01/17 06:59:39;;;;;;;5.73;2.67;;;4.40;99.90;;;;;;8479279;27;20184;-64
2022/01/17 07:03:40;;;;;;;4.53;2.70;;;4.40;99.90;;;;;;8474221;27;20207;-62
2022/01/17 07:07:41;;;;;;;3.97;1.97;;;4.30;99.90;;;;;;8478459;27;20182;-68
2022/01/17 07:11:41;;;;;;;3.67;2.10;;;4.30;99.90;;;;;;8453884;28;20218;-67
2022/01/17 07:15:42;;;;;;;4.23;1.80;;;4.30;99.90;;;;;;8454874;28;20199;-66
2022/01/17 07:19:43;;;;;;;2.57;1.50;;;4.40;99.90;;;;;;8484809;27;20336;-67
2022/01/17 07:23:44;;;;;;;3.73;1.47;;;4.40;99.90;;;;;;8478120;27;20229;-66
2022/01/17 07:27:44;;;;;;;2.43;1.30;;;4.40;99.90;;;;;;8486513;27;20179;-67
2022/01/17 07:31:45;;;;;;;2.77;1.40;;;4.50;99.90;;;;;;8474878;27;20223;-68
2022/01/17 07:35:48;;;;;;;3.27;1.47;;;4.60;99.90;;;;;;8483750;27;20215;-67
2022/01/17 07:39:49;;;;;;;2.80;0.97;;;4.60;99.90;;;;;;8475995;27;20184;-66
2022/01/17 07:43:51;;;;;;;3.57;1.20;;;4.70;99.90;;;;;;8454037;28;20234;-67
2022/01/17 07:51:59;;;;;;;5.00;1.30;;;4.60;99.90;;;;;;8482473;27;20187;-68
2022/01/17 07:55:59;;;;;;;1.37;1.10;;;4.60;99.90;;;;;;8467961;27;20311;-68
2022/01/17 08:00:00;;;;;;;3.03;1.30;;;4.60;99.90;;;;;;8480404;27;20274;-66
2022/01/17 08:04:01;;;;;;;2.17;1.40;;;4.50;99.90;;;;;;8468936;27;20263;-68
2022/01/17 08:08:02;;;;;;;5.83;1.47;;;4.50;99.90;;;;;;8480812;27;20179;-68
2022/01/17 08:12:07;;;;;;;2.10;1.17;;;4.50;99.90;;;;;;8466226;27;20187;-67
2022/01/17 08:16:08;;;;;;;3.07;1.13;;;4.50;99.90;;;;;;8484281;28;20230;-68
2022/01/17 08:20:09;;;;;;;2.80;1.43;;;4.50;99.90;;;;;;8476027;28;20175;-67
2022/01/17 08:24:10;;;;;;;4.43;1.40;;;4.50;99.90;;;;;;8478221;27;20301;-67
2022/01/17 08:28:10;;;;;;;1.63;1.13;;;4.50;99.90;;;;;;8459057;28;20195;-66
2022/01/17 08:32:11;;;;;;;1.87;1.30;;;4.50;99.90;;;;;;8470944;28;20264;-66
2022/01/17 08:36:13;;;;;;;4.03;1.00;;;4.60;99.90;;;;;;8476426;28;20183;-67
2022/01/17 08:40:15;;;;;;;5.07;1.00;;;4.60;99.90;;;;;;8472473;28;20188;-67
2022/01/17 08:44:19;;;;;;;3.40;1.30;;;4.70;99.90;;;;;;8453438;28;20203;-67
2022/01/17 08:48:20;;;;;;;1.53;1.13;;;4.70;99.90;;;;;;8472643;27;20191;-68
2022/01/17 08:52:20;;;;;;;3.57;1.20;;;4.70;99.90;;;;;;8482457;27;20198;-67
2022/01/17 08:56:21;;;;;;;3.20;0.87;;;4.70;99.90;;;;;;8465251;27;20196;-66
2022/01/17 09:00:22;;;;;;;2.40;1.00;;;4.80;99.90;;;;;;8488328;27;20208;-67
2022/01/17 09:04:23;;;;;;;3.93;1.53;;;4.80;99.90;;;;;;8484084;27;20210;-67
2022/01/17 09:08:24;;;;;;;1.10;0.80;;;4.80;99.90;;;;;;8484563;27;20224;-66
2022/01/17 09:12:25;;;;;;;3.80;1.40;;;4.70;99.90;;;;;;8473205;27;20195;-66
2022/01/17 09:16:26;;;;;;;2.63;1.30;;;4.80;99.90;;;;;;8492765;27;20213;-68
2022/01/17 09:20:27;;;;;;;4.00;1.10;;;4.90;99.90;;;;;;8490665;27;20179;-67
2022/01/17 09:24:28;;;;;;;1.97;1.40;;;4.90;99.90;;;;;;8491453;27;20207;-67
2022/01/17 09:28:29;;;;;;;3.30;1.30;;;5.00;99.90;;;;;;8481545;27;20214;-66
2022/01/17 09:32:30;;;;;;;1.27;0.80;;;5.00;99.90;;;;;;8479387;27;20199;-68
2022/01/17 09:36:33;;;;;;;3.50;1.67;;;5.00;99.90;;;;;;8462697;27;20416;-67
2022/01/17 09:40:34;;;;;;;2.30;1.63;;;5.00;99.90;;;;;;8473656;27;20180;-68
2022/01/17 09:44:36;;;;;;;3.73;1.33;;;5.00;99.90;;;;;;8482770;27;20209;-67
2022/01/17 09:48:39;;;;;;;3.17;1.50;;;5.00;99.90;;;;;;8467056;27;20184;-67
2022/01/17 09:52:46;;;;;;;3.17;1.50;;;5.00;99.90;;;;;;8480730;27;20193;-67
2022/01/17 09:56:50;;;;;;;2.87;1.23;;;5.00;99.90;;;;;;8480736;27;20203;-67
2022/01/17 10:00:51;;;;;;;3.00;1.63;;;5.00;99.90;;;;;;8473756;27;20184;-67
2022/01/17 10:04:52;;;;;;;2.70;1.43;;;5.10;99.90;;;;;;8481102;27;20213;-68
2022/01/17 10:09:13;;;;;;;1.87;1.40;;;5.10;99.90;;;;;;8482786;27;20231;-66
2022/01/17 10:13:24;;;;;;;3.77;1.37;;;5.20;99.90;;;;;;8480709;27;20183;-66
2022/01/17 10:17:56;;;;;;;3.33;1.50;;;5.30;99.90;;;;;;8480121;27;20228;-67
2022/01/17 10:22:02;;;;;;;4.60;1.50;;;5.40;99.90;;;;;;8468561;27;20291;-67
2022/01/17 10:26:08;;;;;;;4.97;1.67;;;5.40;99.90;;;;;;8487663;27;20186;-66
2022/01/17 10:38:33;;;;;;;1.63;1.53;;;5.20;99.90;;;;;;8466921;27;20244;-65
2022/01/17 10:42:41;;;;;;;1.70;1.30;;;5.20;99.90;;;;;;8488797;27;20248;-67
2022/01/17 10:46:42;;;;;;;1.77;1.33;;;5.20;99.90;;;;;;8482090;27;20207;-67
2022/01/17 10:50:48;;;;;;;4.10;1.37;;;5.30;99.90;;;;;;8473128;27;20255;-67
2022/01/17 10:55:02;;;;;;;5.23;1.67;;;5.30;99.90;;;;;;8478412;27;20193;-69
2022/01/17 10:59:04;;;;;;;4.47;1.40;;;5.30;99.90;;;;;;8467327;27;20196;-67
2022/01/17 11:03:08;;;;;;;1.83;1.40;;;5.20;99.90;;;;;;8482326;27;20245;-65
2022/01/17 11:07:09;;;;;;;3.23;1.73;;;5.20;99.90;;;;;;8468802;27;20208;-66
2022/01/17 11:11:11;;;;;;;3.33;1.90;;;5.00;99.90;;;;;;8472336;27;20179;-66
2022/01/17 11:15:14;;;;;;;5.10;2.03;;;4.90;99.90;;;;;;8459191;27;20187;-67
2022/01/17 11:20:03;;;;;;;3.73;1.30;;;4.70;99.90;;;;;;8483123;27;20194;-66
2022/01/17 11:23:45;;;;;;;2.93;1.40;;;4.00;99.90;;;;;;8475269;27;20286;-66
2022/01/17 11:27:47;;;;;;;1.40;1.30;;;3.60;99.90;;;;;;8479106;27;20311;-64
2022/01/17 11:31:48;;;;;;;2.77;1.10;;;3.70;99.90;;;;;;8461804;27;20195;-68
2022/01/17 11:35:53;;;;;;;3.33;1.57;;;3.70;99.90;;;;;;8452303;28;20375;-66
2022/01/17 11:39:58;;;;;;;1.90;1.10;;;3.60;99.90;;;;;;8469269;27;20184;-68
2022/01/17 11:44:02;;;;;;;2.10;0.90;;;3.40;99.90;;;;;;8454015;27;20309;-68
2022/01/17 11:48:18;;;;;;;1.57;1.10;;;3.20;99.90;;;;;;8476651;27;20225;-66
2022/01/17 11:52:29;;;;;;;1.87;1.23;;;3.10;99.90;;;;;;8477781;27;20183;-67
2022/01/17 11:56:41;;;;;;;2.50;0.70;;;2.80;99.90;;;;;;8465953;27;20203;-65
2022/01/17 12:00:43;;;;;;;1.93;0.97;;;2.40;99.90;;;;;;8482302;27;20188;-65
2022/01/17 12:05:06;;;;;;;1.23;0.87;;;2.30;99.90;;;;;;8485245;27;20202;-65
2022/01/17 12:09:21;;;;;;;3.33;1.00;;;2.30;99.90;;;;;;8486796;28;20189;-64
2022/01/17 12:13:35;;;;;;;1.53;1.00;;;2.40;99.90;;;;;;8483695;28;20218;-66
2022/01/17 12:17:36;;;;;;;2.43;0.70;;;2.50;99.90;;;;;;8474771;28;20234;-66
2022/01/17 12:21:40;;;;;;;3.10;1.60;;;2.50;99.90;;;;;;8468152;27;20564;-66
2022/01/17 12:25:41;;;;;;;5.97;1.57;;;2.60;99.90;;;;;;8488712;27;20175;-65
2022/01/17 12:29:46;;;;;;;2.50;1.23;;;2.70;99.90;;;;;;8476198;27;20213;-67
2022/01/17 12:33:47;;;;;;;2.07;0.93;;;2.70;99.90;;;;;;8470643;27;20202;-65
2022/01/17 12:38:04;;;;;;;7.70;1.60;;;2.70;99.90;;;;;;8458762;28;20669;-67
2022/01/17 12:42:05;;;;;;;3.90;1.80;;;2.70;99.90;;;;;;8491626;27;20199;-67
2022/01/17 12:46:10;;;;;;;3.97;1.30;;;2.70;99.90;;;;;;8491083;27;20179;-67
2022/01/17 12:50:11;;;;;;;2.33;1.00;;;2.80;99.90;;;;;;8483622;27;20198;-69
2022/01/17 12:54:15;;;;;;;2.80;0.90;;;2.90;99.90;;;;;;8475089;27;20195;-67
2022/01/17 12:58:19;;;;;;;1.67;0.87;;;2.90;99.90;;;;;;8481857;27;20215;-68
2022/01/17 13:02:20;;;;;;;4.33;1.57;;;2.80;99.90;;;;;;8478174;27;20233;-66
2022/01/17 13:06:21;;;;;;;3.57;1.50;;;2.70;99.90;;;;;;8490936;27;20183;-69
2022/01/17 13:10:22;;;;;;;2.97;1.33;;;2.70;99.90;;;;;;8476408;27;20244;-68
2022/01/17 13:14:25;;;;;;;0.87;0.77;;;2.60;99.90;;;;;;8491886;27;20179;-68
2022/01/17 13:18:28;;;;;;;1.67;0.80;;;2.60;99.90;;;;;;8494936;27;20207;-68
2022/01/17 13:22:37;;;;;;;3.27;1.00;;;2.60;99.90;;;;;;8491097;27;20213;-67
2022/01/17 13:26:50;;;;;;;3.67;0.90;;;2.50;99.90;;;;;;8474514;27;20184;-66
2022/01/17 13:30:54;;;;;;;2.30;0.80;;;2.50;99.90;;;;;;8488244;27;20215;-68
2022/01/17 13:34:57;;;;;;;2.37;1.47;;;2.50;99.90;;;;;;8459347;27;20215;-67
2022/01/17 13:39:08;;;;;;;4.23;1.20;;;2.60;99.90;;;;;;8471830;27;20183;-67
2022/01/17 13:43:10;;;;;;;2.00;1.10;;;2.50;99.90;;;;;;8488095;27;20284;-70
2022/01/17 13:47:13;;;;;;;1.77;1.20;;;2.50;99.90;;;;;;8480604;27;20188;-68
2022/01/17 13:51:14;;;;;;;1.03;0.80;;;2.50;99.90;;;;;;8477205;27;20175;-68
2022/01/17 13:55:47;;;;;;;3.63;1.30;;;2.40;99.90;;;;;;8478950;27;20179;-69
2022/01/17 13:59:58;;;;;;;5.70;1.20;;;2.30;99.90;;;;;;8446219;27;20199;-69
2022/01/17 14:04:04;;;;;;;2.60;1.30;;;2.20;99.90;;;;;;8479998;27;20492;-67
2022/01/17 14:08:17;;;;;;;5.10;2.17;;;2.10;99.90;;;;;;8485739;27;20171;-69
2022/01/17 14:12:22;;;;;;;3.47;1.50;;;2.00;99.90;;;;;;8487083;27;20193;-70
2022/01/17 14:16:32;;;;;;;5.73;2.73;;;1.90;99.90;;;;;;8486010;27;20210;-70
2022/01/17 14:20:33;;;;;;;6.27;1.73;;;1.80;99.90;;;;;;8486116;27;20187;-67
2022/01/17 14:24:46;;;;;;;8.13;2.00;;;1.80;99.90;;;;;;8472658;27;20481;-69
2022/01/17 14:28:50;;;;;;;6.47;1.27;;;1.80;99.90;;;;;;8471117;27;20188;-69
2022/01/17 14:33:32;;;;;;;8.03;1.50;;;1.70;1.00;;;;;;8462220;27;20191;-69
2022/01/17 14:37:33;;;;;;;6.83;2.10;;;1.50;1.00;;;;;;8453913;27;20206;-70
2022/01/17 14:41:37;;;;;;;3.30;1.23;;;1.50;99.90;;;;;;8469165;27;20226;-70
2022/01/17 14:45:38;;;;;;;5.70;1.67;;;1.50;99.90;;;;;;8456201;28;20210;-69
2022/01/17 14:49:43;;;;;;;6.33;2.20;;;1.50;99.90;;;;;;8458835;27;20184;-70
2022/01/17 14:53:44;;;;;;;6.97;1.83;;;1.60;3.20;;;;;;8472415;27;20176;-69
2022/01/17 15:02:21;;;;;;;6.47;2.00;;;1.40;1.00;;;;;;8480361;27;20271;-70
2022/01/17 15:06:22;;;;;;;5.57;1.80;;;1.30;99.90;;;;;;8486956;27;20194;-70
2022/01/17 15:10:25;;;;;;;5.43;2.47;;;1.20;99.90;;;;;;8471916;27;20184;-70
2022/01/17 15:14:27;;;;;;;5.83;1.13;;;1.10;99.90;;;;;;8478795;27;20236;-69
2022/01/17 15:18:27;;;;;;;1.63;0.90;;;1.00;2.60;;;;;;8485015;27;20207;-70
2022/01/17 15:22:28;;;;;;;3.97;0.97;;;1.00;1.00;;;;;;8488037;27;20202;-71
2022/01/17 15:26:29;;;;;;;7.07;1.60;;;0.90;99.90;;;;;;8460985;27;20194;-69
2022/01/17 15:30:33;;;;;;;4.57;1.23;;;0.80;1.00;;;;;;8485743;27;20231;-70
2022/01/17 15:34:34;;;;;;;3.73;1.43;;;0.70;99.90;;;;;;8479405;27;20179;-69
2022/01/17 15:38:35;;;;;;;3.23;1.50;;;0.70;1.00;;;;;;8480328;27;20247;-69
2022/01/17 15:42:37;;;;;;;2.77;1.20;;;0.60;99.90;;;;;;8484408;27;20199;-70
2022/01/17 15:46:41;;;;;;;4.20;1.50;;;0.50;99.90;;;;;;8480652;27;20213;-69
2022/01/17 15:50:42;;;;;;;1.77;1.10;;;0.50;1.00;;;;;;8472245;27;20266;-68
2022/01/17 15:54:43;;;;;;;3.87;1.13;;;0.40;54.70;;;;;;8469758;27;20211;-68
2022/01/17 15:58:44;;;;;;;2.13;1.40;;;0.20;99.90;;;;;;8466760;27;20195;-67
2022/01/17 16:02:45;;;;;;;4.03;1.70;;;0.20;99.90;;;;;;8466530;27;20614;-68
2022/01/17 16:06:46;;;;;;;2.30;1.23;;;0.10;99.90;;;;;;8477515;27;20179;-68
2022/01/17 16:10:48;;;;;;;2.83;1.03;;;0.00;1.00;;;;;;8479603;28;20214;-67
2022/01/17 16:14:49;;;;;;;3.07;1.33;;;0.00;1.00;;;;;;8481484;27;20212;-68
2022/01/17 16:18:54;;;;;;;6.07;2.20;;;-0.10;1.00;;;;;;8483810;28;20214;-68
2022/01/17 16:22:55;;;;;;;2.57;1.03;;;-0.20;99.90;;;;;;8484393;27;20203;-68
2022/01/17 16:26:55;;;;;;;2.57;1.33;;;-0.20;99.90;;;;;;8456028;28;20179;-67
2022/01/17 16:30:56;;;;;;;5.00;1.43;;;-0.30;99.90;;;;;;8477948;27;20180;-67
2022/01/17 16:34:58;;;;;;;3.67;1.20;;;-0.40;99.90;;;;;;8483073;28;20186;-68
2022/01/17 16:38:59;;;;;;;3.97;1.60;;;-0.30;99.90;;;;;;8478791;27;20185;-68
2022/01/17 16:43:00;;;;;;;1.73;1.20;;;-0.30;99.90;;;;;;8469902;28;20202;-68
2022/01/17 16:47:02;;;;;;;3.20;1.50;;;-0.30;99.90;;;;;;8484932;28;20243;-68
2022/01/17 16:51:04;;;;;;;7.23;1.70;;;-0.20;38.40;;;;;;8485616;28;20227;-68
2022/01/17 16:55:06;;;;;;;4.47;2.03;;;-0.20;1.00;;;;;;8484515;27;20210;-68
2022/01/17 16:59:07;;;;;;;5.97;1.83;;;-0.10;1.00;;;;;;8481619;27;20235;-68
2022/01/17 17:03:08;;;;;;;7.13;2.13;;;-0.10;99.90;;;;;;8459755;28;20385;-66
2022/01/17 17:07:09;;;;;;;4.67;1.87;;;-0.10;99.90;;;;;;8453134;28;20287;-69
2022/01/17 17:11:10;;;;;;;7.97;1.60;;;0.00;99.90;;;;;;8470099;27;20178;-66
2022/01/17 17:15:12;;;;;;;4.60;1.80;;;-0.10;99.90;;;;;;8473470;27;20277;-67
2022/01/17 17:19:13;;;;;;;4.53;1.93;;;-0.10;99.90;;;;;;8477248;27;20186;-68
2022/01/17 17:23:14;;;;;;;5.90;1.63;;;-0.10;99.90;;;;;;8467437;27;20224;-68
2022/01/17 17:27:15;;;;;;;3.50;1.20;;;-0.10;99.90;;;;;;8469304;27;20186;-68
2022/01/17 17:31:17;;;;;;;5.43;2.00;;;0.00;99.90;;;;;;8465261;27;20253;-66
2022/01/17 17:35:18;;;;;;;5.43;1.63;;;0.10;21.60;;;;;;8489465;27;20189;-68
2022/01/17 17:39:18;;;;;;;7.07;1.80;;;0.10;19.80;;;;;;8475826;27;20183;-68
2022/01/17 17:43:20;;;;;;;6.03;2.10;;;0.00;35.10;;;;;;8489688;27;20214;-68
2022/01/17 17:47:20;;;;;;;9.87;1.93;;;0.10;1.00;;;;;;8477341;27;20183;-67
2022/01/17 17:51:22;;;;;;;6.53;1.83;;;0.10;1.00;;;;;;8480414;27;20183;-68
2022/01/17 17:55:23;;;;;;;7.97;2.10;;;0.10;1.00;;;;;;8484764;27;20200;-68
2022/01/17 17:59:24;;;;;;;7.27;2.10;;;0.10;99.90;;;;;;8478134;27;20201;-68
2022/01/17 18:03:25;;;;;;;5.70;1.47;;;0.10;99.90;;;;;;8478913;27;20512;-68
2022/01/17 18:07:26;;;;;;;4.53;1.60;;;0.10;99.90;;;;;;8485926;27;20175;-68
2022/01/17 18:11:27;;;;;;;3.10;1.90;;;0.10;99.90;;;;;;8482540;27;20193;-68
2022/01/17 18:15:28;;;;;;;6.10;1.77;;;0.00;99.90;;;;;;8479258;27;20294;-68
2022/01/17 18:19:29;;;;;;;6.37;1.50;;;0.00;99.90;;;;;;8481434;27;20198;-68
2022/01/17 18:23:30;;;;;;;9.70;2.17;;;0.00;99.90;;;;;;8485021;27;20202;-67
2022/01/17 18:27:31;;;;;;;6.43;1.80;;;-0.10;99.90;;;;;;8458905;27;20586;-68
2022/01/17 18:31:33;;;;;;;1.77;1.30;;;0.00;99.90;;;;;;8486259;27;20232;-67
2022/01/17 18:35:35;;;;;;;3.03;1.30;;;0.00;99.90;;;;;;8454786;28;20211;-68
2022/01/17 18:39:36;;;;;;;6.63;1.73;;;0.00;95.70;;;;;;8470476;27;20179;-68
2022/01/17 18:43:37;;;;;;;10.87;2.00;;;0.00;99.90;;;;;;8488243;27;20214;-71
2022/01/17 18:47:38;;;;;;;5.87;1.67;;;-0.10;99.90;;;;;;8467082;27;20183;-66
2022/01/17 18:51:40;;;;;;;6.87;1.77;;;-0.10;99.90;;;;;;8470850;27;20246;-68
2022/01/17 18:55:40;;;;;;;5.23;2.10;;;-0.20;1.00;;;;;;8466457;27;20272;-67
2022/01/17 18:59:41;;;;;;;8.57;2.23;;;-0.20;83.30;;;;;;8479692;27;20192;-67
2022/01/17 19:03:44;;;;;;;5.03;1.80;;;-0.20;91.10;;;;;;8477988;27;20216;-67
2022/01/17 19:07:47;;;;;;;8.30;1.90;;;-0.20;99.90;;;;;;8479477;27;20271;-68
2022/01/17 19:11:48;;;;;;;6.13;1.80;;;-0.30;99.90;;;;;;8482963;27;20185;-68
2022/01/17 19:15:49;;;;;;;3.07;1.40;;;-0.30;1.00;;;;;;8486782;27;20210;-66
2022/01/17 19:24:01;;;;;;;6.17;1.47;;;-0.20;35.90;;;;;;8471771;27;20222;-66
2022/01/17 19:28:02;;;;;;;6.57;2.20;;;-0.30;99.90;;;;;;8469742;27;20267;-66
2022/01/17 19:32:03;;;;;;;6.43;2.03;;;-0.20;99.90;;;;;;8477813;27;20217;-67
2022/01/17 19:36:05;;;;;;;4.27;1.57;;;-0.20;99.90;;;;;;8485147;27;20179;-66
2022/01/17 19:40:06;;;;;;;10.40;2.10;;;-0.20;99.90;;;;;;8479319;27;20183;-68
2022/01/17 19:44:07;;;;;;;9.30;2.30;;;-0.20;99.90;;;;;;8472889;27;20207;-66
2022/01/17 19:48:13;;;;;;;4.53;2.23;;;-0.20;99.90;;;;;;8487784;27;20183;-67
2022/01/17 19:52:15;;;;;;;7.00;1.80;;;-0.20;99.90;;;;;;8464379;27;20280;-67
2022/01/17 19:56:17;;;;;;;7.47;1.70;;;-0.20;99.90;;;;;;8484338;27;20209;-67
2022/01/17 20:00:18;;;;;;;7.43;2.67;;;-0.30;99.90;;;;;;8467536;27;20192;-66
2022/01/17 20:04:19;;;;;;;5.50;1.67;;;-0.30;99.90;;;;;;8478792;27;20207;-66
2022/01/17 20:08:20;;;;;;;8.37;2.20;;;-0.40;99.90;;;;;;8480065;27;20556;-66
2022/01/17 20:12:21;;;;;;;8.50;1.93;;;-0.50;99.90;;;;;;8476462;27;20190;-67
2022/01/17 20:16:23;;;;;;;12.10;2.10;;;-0.50;99.90;;;;;;8480153;28;20288;-66
2022/01/17 20:20:24;;;;;;;5.17;1.73;;;-0.50;99.90;;;;;;8486633;28;20179;-66
2022/01/17 20:24:25;;;;;;;3.43;1.87;;;-0.50;99.90;;;;;;8468496;28;20214;-65
2022/01/17 20:28:26;;;;;;;9.97;2.20;;;-0.50;99.90;;;;;;8463132;28;20187;-68
2022/01/17 20:32:28;;;;;;;5.63;1.47;;;-0.50;99.90;;;;;;8466828;27;20200;-67
2022/01/17 20:36:29;;;;;;;8.83;1.87;;;-0.60;99.90;;;;;;8449970;28;20187;-67
2022/01/17 20:40:30;;;;;;;8.43;2.13;;;-0.60;99.90;;;;;;8464079;27;20219;-66
2022/01/17 20:44:31;;;;;;;6.37;2.30;;;-0.70;99.90;;;;;;8450009;28;20214;-67
2022/01/17 20:48:33;;;;;;;8.93;1.83;;;-0.60;99.90;;;;;;8477372;27;20182;-67
2022/01/17 20:52:34;;;;;;;10.47;1.97;;;-0.70;99.90;;;;;;8476117;27;20197;-66
2022/01/17 20:56:35;;;;;;;7.27;2.27;;;-0.70;99.90;;;;;;8480068;27;20254;-68
2022/01/17 21:00:37;;;;;;;7.50;2.53;;;-0.70;99.90;;;;;;8475528;27;20196;-65
2022/01/17 21:04:39;;;;;;;7.87;2.07;;;-0.70;99.90;;;;;;8475290;27;20250;-66
2022/01/17 21:08:40;;;;;;;6.53;2.53;;;-0.80;99.90;;;;;;8481299;27;20181;-66
2022/01/17 21:12:41;;;;;;;8.87;1.80;;;-0.80;99.90;;;;;;8475551;27;20593;-67
2022/01/17 21:16:42;;;;;;;7.97;2.90;;;-0.90;99.90;;;;;;8478046;27;20651;-73
2022/01/17 21:20:43;;;;;;;11.53;2.43;;;-0.80;99.90;;;;;;8491102;27;20221;-67
2022/01/17 21:24:45;;;;;;;6.80;2.30;;;-0.80;99.90;;;;;;8481867;27;20225;-66
2022/01/17 21:28:46;;;;;;;11.23;2.17;;;-0.80;99.90;;;;;;8481664;27;20190;-66
2022/01/17 21:32:47;;;;;;;8.53;2.37;;;-0.70;99.90;;;;;;8480398;27;20457;-66
2022/01/17 21:36:50;;;;;;;5.27;1.90;;;-0.70;99.90;;;;;;8474864;27;20194;-67
2022/01/17 21:40:52;;;;;;;12.93;2.30;;;-0.70;99.90;;;;;;8481862;27;20265;-66
2022/01/17 21:44:53;;;;;;;7.67;1.80;;;-0.70;99.90;;;;;;8480243;27;20212;-74
2022/01/17 21:48:54;;;;;;;7.30;2.43;;;-0.70;99.90;;;;;;8475007;27;20291;-67
2022/01/17 21:52:56;;;;;;;8.30;1.90;;;-0.80;99.90;;;;;;8475894;27;20193;-67
2022/01/17 21:56:57;;;;;;;13.60;2.47;;;-0.90;99.90;;;;;;8464421;27;20216;-66